^^
Grace C. Lehan Memorial Weather Station Historical Data
Daily Summary for February 1, 2022 Units:  English    Metric   Both
Daily Weekly Monthly Yearly
  High: Low: Average:
Temperature: 43.4 °F 32.9 °F 39.1 °F
Dew Point: 29.6 °F 21.7 °F 25.1 °F
Humidity: 74% 43.8% 58%
Wind Speed: 16.3mph 0mph 4.7mph
Wind Gust: 31mph - -
Wind- - WNW
Pressure: 30.38 in 29.78 in -
Precipitation: 0.00 in    
 
 
Tabular Data for February 1, 2022
Time Temperature Dew Point Pressure Wind Wind Speed Wind Gust Humidity Rainfall Rate (Hourly) solar
00:04 42 °F 29.5 °F 29.78 in WNW 6.8 mph 19 mph 61% 0.00 in 0 W/m2
00:09 41.8 °F 29.4 °F 29.78 in WNW 4.6 mph 15 mph 61% 0.00 in 0 W/m2
00:14 41.6 °F 29.5 °F 29.78 in WNW 5.3 mph 15 mph 61.8% 0.00 in 0 W/m2
00:19 41.4 °F 29.4 °F 29.78 in WNW 1.6 mph 15 mph 62% 0.00 in 0 W/m2
00:24 41.2 °F 29.3 °F 29.79 in WNW 2.7 mph 15 mph 62.3% 0.00 in 0 W/m2
00:29 40.9 °F 28.8 °F 29.79 in WNW 4.9 mph 15 mph 61.7% 0.00 in 0 W/m2
00:34 40.8 °F 28.6 °F 29.79 in WNW 4.9 mph 15 mph 61.5% 0.00 in 0 W/m2
00:39 40.7 °F 28.5 °F 29.79 in WNW 3.2 mph 9 mph 61.5% 0.00 in 0 W/m2
00:44 40.5 °F 28.3 °F 29.79 in WNW 2 mph 9 mph 61.4% 0.00 in 0 W/m2
00:49 40.3 °F 28 °F 29.79 in WNW 3.8 mph 13 mph 61% 0.00 in 0 W/m2
00:54 40.2 °F 27.9 °F 29.80 in NW 5 mph 13 mph 61% 0.00 in 0 W/m2
00:59 40.2 °F 27.8 °F 29.80 in WNW 1.9 mph 13 mph 61% 0.00 in 0 W/m2
01:04 40.1 °F 28.1 °F 29.80 in WNW 0.7 mph 13 mph 61.9% 0.00 in 0 W/m2
01:09 39.9 °F 27.9 °F 29.80 in NW 1.6 mph 10 mph 62% 0.00 in 0 W/m2
01:14 39.7 °F 27.8 °F 29.81 in NW 1 mph 10 mph 62% 0.00 in 0 W/m2
01:19 39.6 °F 27.7 °F 29.81 in NW 1.4 mph 10 mph 62% 0.00 in 0 W/m2
01:24 39.5 °F 27.6 °F 29.81 in NW 0.8 mph 10 mph 62% 0.00 in 0 W/m2
01:29 39.5 °F 27.5 °F 29.82 in NW 2 mph 10 mph 62% 0.00 in 0 W/m2
01:34 39.5 °F 27.6 °F 29.82 in WNW 1.5 mph 10 mph 62% 0.00 in 0 W/m2
01:39 39.6 °F 27.6 °F 29.82 in WNW 2.5 mph 10 mph 62% 0.00 in 0 W/m2
01:44 39.7 °F 27.7 °F 29.83 in WNW 1.3 mph 10 mph 62% 0.00 in 0 W/m2
01:49 39.7 °F 27.8 °F 29.83 in WNW 3.7 mph 13 mph 62% 0.00 in 0 W/m2
01:54 39.9 °F 27.9 °F 29.83 in WNW 2.9 mph 13 mph 62% 0.00 in 0 W/m2
01:59 40 °F 27.6 °F 29.83 in WNW 3 mph 13 mph 61% 0.00 in 0 W/m2
02:04 40 °F 27.7 °F 29.84 in WNW 1.3 mph 13 mph 61% 0.00 in 0 W/m2
02:09 40.1 °F 27.8 °F 29.84 in WNW 1.1 mph 9 mph 61% 0.00 in 0 W/m2
02:14 40.1 °F 28 °F 29.84 in WNW 1.5 mph 9 mph 61.7% 0.00 in 0 W/m2
02:19 40 °F 28 °F 29.84 in Calm   9 mph 61.7% 0.00 in 0 W/m2
02:24 40 °F 28.1 °F 29.84 in WNW 1.4 mph 9 mph 62% 0.00 in 0 W/m2
02:29 40 °F 28.1 °F 29.84 in West 2.7 mph 9 mph 62% 0.00 in 0 W/m2
02:34 40 °F 28.1 °F 29.84 in WNW 3.4 mph 10 mph 62% 0.00 in 0 W/m2
02:39 40.1 °F 28.1 °F 29.84 in WNW 2.8 mph 10 mph 62% 0.00 in 0 W/m2
03:00 40 °F 29.6 °F 29.86 in WNW 3 mph 15 mph 66% 0.00 in 0 W/m2
03:30 39.3 °F 29.3 °F 29.86 in NW 2 mph 14 mph 67% 0.00 in 0 W/m2
04:04 39 °F 28.9 °F 29.88 in WSW 2.5 mph 14 mph 67% 0.00 in 0 W/m2
04:09 38.9 °F 28.5 °F 29.88 in West 0.3 mph 7 mph 66% 0.00 in 0 W/m2
04:14 38.9 °F 28.5 °F 29.89 in WNW 0.4 mph 7 mph 66% 0.00 in 0 W/m2
04:19 38.9 °F 28.4 °F 29.89 in West 1.9 mph 7 mph 65.7% 0.00 in 0 W/m2
04:24 38.9 °F 28.2 °F 29.90 in West 2.8 mph 10 mph 65% 0.00 in 0 W/m2
04:29 38.9 °F 28.2 °F 29.90 in WNW 3.7 mph 10 mph 65% 0.00 in 0 W/m2
04:34 38.9 °F 28.1 °F 29.91 in West 2 mph 10 mph 65% 0.00 in 0 W/m2
04:39 38.8 °F 28.1 °F 29.91 in West 0.6 mph 6 mph 65% 0.00 in 0 W/m2
04:44 38.7 °F 28.3 °F 29.92 in WNW 3.2 mph 10 mph 66% 0.00 in 0 W/m2
04:49 38.5 °F 28.2 °F 29.92 in WNW 3.9 mph 13 mph 66% 0.00 in 0 W/m2
04:54 38.4 °F 28.1 °F 29.92 in WNW 4.6 mph 19 mph 66.1% 0.00 in 0 W/m2
04:59 38.3 °F 28 °F 29.93 in NW 6.2 mph 19 mph 66.1% 0.00 in 0 W/m2
05:04 38.2 °F 28.1 °F 29.93 in NW 7.5 mph 19 mph 66.5% 0.00 in 0 W/m2
05:09 38.1 °F 28.1 °F 29.94 in NW 4.6 mph 16 mph 67% 0.00 in 0 W/m2
05:14 37.9 °F 28 °F 29.94 in NW 3.5 mph 16 mph 67.3% 0.00 in 0 W/m2
05:19 37.7 °F 28.1 °F 29.95 in NW 3.7 mph 16 mph 68% 0.00 in 0 W/m2
05:24 37.5 °F 28.2 °F 29.95 in NW 3.9 mph 16 mph 68.6% 0.00 in 0 W/m2
05:29 37.4 °F 28.2 °F 29.96 in NW 3.6 mph 16 mph 69.1% 0.00 in 0 W/m2
05:34 37.4 °F 28.4 °F 29.97 in WNW 9.1 mph 18 mph 69.5% 0.00 in 0 W/m2
05:39 37.3 °F 28.5 °F 29.97 in WNW 5.7 mph 18 mph 70% 0.00 in 0 W/m2
05:44 37.3 °F 28.4 °F 29.97 in NW 3 mph 18 mph 70% 0.00 in 0 W/m2
05:49 37.1 °F 28.5 °F 29.98 in WNW 5.3 mph 18 mph 70.8% 0.00 in 0 W/m2
05:54 36.8 °F 28.3 °F 29.98 in WNW 6.1 mph 19 mph 71% 0.00 in 0 W/m2
05:59 36.5 °F 28.4 °F 29.99 in WNW 7.4 mph 19 mph 72.3% 0.00 in 0 W/m2
06:04 36.2 °F 28.1 °F 29.99 in NW 5.2 mph 19 mph 72.1% 0.00 in 0 W/m2
06:09 36.1 °F 28.2 °F 29.99 in WNW 5.9 mph 14 mph 72.8% 0.00 in 0 W/m2
06:14 35.9 °F 28.1 °F 29.99 in WNW 7.6 mph 15 mph 73% 0.00 in 0 W/m2
06:19 35.9 °F 28.3 °F 30.00 in West 3.3 mph 15 mph 73.7% 0.00 in 0 W/m2
06:24 35.8 °F 28.3 °F 30.00 in West 3.1 mph 15 mph 74% 0.00 in 0 W/m2
06:29 35.8 °F 28.3 °F 30.00 in West 2.2 mph 15 mph 74% 0.00 in 0 W/m2
06:34 35.7 °F 27.8 °F 30.00 in West 3.8 mph 15 mph 72.6% 0.00 in 0 W/m2
06:39 35.7 °F 27.6 °F 30.01 in WNW 1 mph 11 mph 72.3% 0.00 in 0 W/m2
06:44 35.6 °F 27.5 °F 30.01 in WNW 2.5 mph 11 mph 72.2% 0.00 in 0 W/m2
06:49 35.4 °F 26.8 °F 30.01 in WNW 6.5 mph 15 mph 70.6% 0.00 in 0 W/m2
06:54 35.4 °F 26.2 °F 30.02 in WNW 4.2 mph 15 mph 68.9% 0.00 in 0 W/m2
06:59 35.4 °F 25.8 °F 30.02 in WNW 2.2 mph 15 mph 67.7% 0.00 in 0 W/m2
07:04 35.4 °F 25.3 °F 30.01 in West 2.3 mph 17 mph 66.2% 0.00 in 5 W/m2
07:09 35.5 °F 24.7 °F 30.02 in WNW 7.5 mph 17 mph 64.5% 0.00 in 9 W/m2
07:14 35.6 °F 24.6 °F 30.02 in WNW 3.5 mph 17 mph 64% 0.00 in 12 W/m2
07:19 35.6 °F 24.3 °F 30.02 in West 7 mph 21 mph 63.1% 0.00 in 16 W/m2
07:24 35.8 °F 23.5 °F 30.03 in West 4.9 mph 21 mph 60.5% 0.00 in 23 W/m2
07:29 35.9 °F 23.4 °F 30.03 in West 2.9 mph 21 mph 60% 0.00 in 37 W/m2
07:34 36 °F 23.8 °F 30.03 in West 1.8 mph 21 mph 61% 0.00 in 72 W/m2
07:39 36.3 °F 24.2 °F 30.03 in West 0.1 mph 9 mph 61.1% 0.00 in 81 W/m2
07:44 36.7 °F 25 °F 30.03 in West 0.1 mph 9 mph 62.2% 0.00 in 84 W/m2
07:49 37.3 °F 25.8 °F 30.04 in West 2.8 mph 9 mph 63% 0.00 in 91 W/m2
07:54 37.6 °F 26.2 °F 30.04 in WSW 2.7 mph 10 mph 63% 0.00 in 88 W/m2
07:59 37.9 °F 26.6 °F 30.04 in West 2.4 mph 10 mph 63.4% 0.00 in 128 W/m2
08:04 38.2 °F 26.7 °F 30.04 in WSW 1.8 mph 6 mph 63% 0.00 in 113 W/m2
08:09 38.2 °F 26.8 °F 30.05 in WSW 3.1 mph 14 mph 63% 0.00 in 146 W/m2
08:14 38.4 °F 26.9 °F 30.05 in WSW 3.4 mph 14 mph 62.8% 0.00 in 178 W/m2
08:19 38.7 °F 27.1 °F 30.06 in West 0.7 mph 14 mph 62.9% 0.00 in 192 W/m2
08:24 39.1 °F 27.6 °F 30.06 in WSW 0.8 mph 14 mph 63% 0.00 in 188 W/m2
08:29 39.5 °F 27.5 °F 30.06 in West 3.1 mph 14 mph 61.8% 0.00 in 179 W/m2
08:34 39.6 °F 26.9 °F 30.06 in West 5 mph 14 mph 60% 0.00 in 204 W/m2
08:39 39.6 °F 26.1 °F 30.06 in West 4.9 mph 12 mph 58% 0.00 in 221 W/m2
08:44 39.7 °F 26.2 °F 30.06 in West 2.7 mph 12 mph 58% 0.00 in 221 W/m2
08:49 40 °F 26.1 °F 30.07 in WNW 5.3 mph 15 mph 57.3% 0.00 in 216 W/m2
08:54 40 °F 25.1 °F 30.07 in WNW 7 mph 15 mph 54.9% 0.00 in 151 W/m2
08:59 39.9 °F 24.7 °F 30.07 in WNW 3.4 mph 15 mph 54.2% 0.00 in 132 W/m2
09:04 39.9 °F 24.7 °F 30.07 in West 5.5 mph 15 mph 54.1% 0.00 in 197 W/m2
09:09 39.9 °F 24.4 °F 30.07 in WNW 6.6 mph 17 mph 53.4% 0.00 in 176 W/m2
09:14 39.9 °F 24.3 °F 30.08 in West 7.1 mph 17 mph 53.2% 0.00 in 202 W/m2
09:19 39.7 °F 23.8 °F 30.08 in WNW 6.9 mph 17 mph 52.6% 0.00 in 202 W/m2
09:24 39.7 °F 24.1 °F 30.08 in West 6.1 mph 17 mph 53.3% 0.00 in 141 W/m2
09:29 39.7 °F 24.1 °F 30.08 in West 4.9 mph 17 mph 53.3% 0.00 in 141 W/m2
09:34 39.7 °F 24.3 °F 30.08 in WNW 4.3 mph 17 mph 53.5% 0.00 in 153 W/m2
09:39 39.9 °F 24.6 °F 30.08 in West 4.7 mph 17 mph 54% 0.00 in 192 W/m2
09:44 40.1 °F 24.8 °F 30.08 in West 4.8 mph 17 mph 54% 0.00 in 262 W/m2
09:49 40.4 °F 25.3 °F 30.08 in WSW 7.3 mph 17 mph 54.6% 0.00 in 146 W/m2
09:54 40.5 °F 24.3 °F 30.08 in West 6.7 mph 21 mph 52.1% 0.00 in 172 W/m2
09:59 40.7 °F 24.9 °F 30.09 in West 6.3 mph 21 mph 53% 0.00 in 239 W/m2
10:04 40.9 °F 24.3 °F 30.09 in West 9.3 mph 26 mph 51.3% 0.00 in 276 W/m2
10:09 41.2 °F 24.9 °F 30.09 in WSW 3.6 mph 26 mph 52% 0.00 in 364 W/m2
10:14 41.7 °F 25.2 °F 30.09 in WNW 7.2 mph 26 mph 51.6% 0.00 in 462 W/m2
10:19 42.2 °F 25.4 °F 30.10 in WSW 6 mph 26 mph 51% 0.00 in 503 W/m2
10:24 42.7 °F 25.2 °F 30.10 in WSW 6.3 mph 26 mph 49.8% 0.00 in 436 W/m2
10:29 43 °F 25.7 °F 30.11 in West 7.1 mph 26 mph 50.3% 0.00 in 295 W/m2
10:34 43.1 °F 25.7 °F 30.11 in West 6.4 mph 26 mph 49.9% 0.00 in 278 W/m2
10:39 42.9 °F 24.7 °F 30.11 in West 8.3 mph 20 mph 48.3% 0.00 in 359 W/m2
10:44 42.7 °F 24.9 °F 30.11 in WNW 8.5 mph 20 mph 49% 0.00 in 371 W/m2
10:49 42.6 °F 24.9 °F 30.11 in West 8 mph 20 mph 49.2% 0.00 in 276 W/m2
10:54 42.7 °F 24.8 °F 30.11 in West 7.6 mph 21 mph 48.8% 0.00 in 272 W/m2
10:59 42.6 °F 24.3 °F 30.11 in WNW 6.9 mph 21 mph 48% 0.00 in 272 W/m2
11:04 42.6 °F 24.6 °F 30.12 in West 9.1 mph 21 mph 48.5% 0.00 in 199 W/m2
11:09 42.4 °F 24.1 °F 30.12 in WNW 4.8 mph 18 mph 47.9% 0.00 in 169 W/m2
11:14 42.2 °F 24 °F 30.11 in WNW 8.9 mph 18 mph 48.2% 0.00 in 243 W/m2
11:17 41.9 °F 23.9 °F 30.11 in West 7 mph 18 mph 48.3% 0.00 in 209 W/m2
11:30 41.5 °F 23.8 °F 30.11 in WNW 8 mph 19 mph 49% 0.00 in 160 W/m2
12:04 41.7 °F 23.5 °F 30.11 in WNW 8.4 mph 19 mph 48.1% 0.00 in 380 W/m2
12:09 41.6 °F 23.1 °F 30.12 in WNW 5.8 mph 20 mph 47.4% 0.00 in 250 W/m2
12:14 41.7 °F 23.4 °F 30.12 in WNW 6.5 mph 20 mph 47.9% 0.00 in 250 W/m2
12:19 41.7 °F 23.4 °F 30.12 in WNW 5.5 mph 20 mph 47.9% 0.00 in 200 W/m2
12:24 41.8 °F 23.2 °F 30.13 in WNW 9.3 mph 21 mph 47.2% 0.00 in 221 W/m2
12:29 41.6 °F 22.2 °F 30.13 in WNW 8.2 mph 21 mph 45.7% 0.00 in 125 W/m2
12:34 41.6 °F 23.3 °F 30.13 in WNW 4.5 mph 21 mph 47.8% 0.00 in 151 W/m2
12:39 41.7 °F 22.9 °F 30.13 in WNW 7 mph 15 mph 46.8% 0.00 in 123 W/m2
12:44 41.6 °F 22.6 °F 30.13 in NW 4.8 mph 15 mph 46.3% 0.00 in 169 W/m2
12:49 41.8 °F 22.8 °F 30.13 in WNW 10.1 mph 20 mph 46.6% 0.00 in 179 W/m2
12:54 41.7 °F 22 °F 30.12 in WNW 10.3 mph 20 mph 45% 0.00 in 186 W/m2
12:59 41.8 °F 22 °F 30.12 in WNW 11.7 mph 27 mph 45% 0.00 in 237 W/m2
13:04 42 °F 22.3 °F 30.12 in WNW 8.3 mph 27 mph 45.2% 0.00 in 118 W/m2
13:09 42.1 °F 22.1 °F 30.13 in WNW 9.5 mph 25 mph 44.5% 0.00 in 220 W/m2
13:14 42.1 °F 22.1 °F 30.13 in WNW 11.9 mph 25 mph 44.6% 0.00 in 220 W/m2
13:19 41.9 °F 21.7 °F 30.14 in WNW 12.1 mph 25 mph 44.1% 0.00 in 213 W/m2
13:24 41.9 °F 22.1 °F 30.13 in WNW 7.3 mph 25 mph 45% 0.00 in 190 W/m2
13:29 42 °F 22.3 °F 30.13 in WNW 9.1 mph 25 mph 45.2% 0.00 in 288 W/m2
13:34 42.2 °F 22.3 °F 30.13 in NW 11.5 mph 25 mph 44.7% 0.00 in 174 W/m2
13:39 42.4 °F 22.1 °F 30.14 in WNW 12.7 mph 23 mph 44% 0.00 in 158 W/m2
13:44 42.5 °F 22.2 °F 30.14 in WNW 6.8 mph 23 mph 44.2% 0.00 in 127 W/m2
13:49 42.7 °F 22.7 °F 30.14 in West 9.2 mph 23 mph 44.8% 0.00 in 320 W/m2
13:54 42.8 °F 22.8 °F 30.15 in West 9.8 mph 23 mph 44.6% 0.00 in 207 W/m2
13:59 43 °F 22.9 °F 30.15 in WNW 10.9 mph 23 mph 44.5% 0.00 in 197 W/m2
14:04 43.1 °F 22.7 °F 30.15 in West 7.3 mph 23 mph 44.1% 0.00 in 195 W/m2
14:09 43.1 °F 23.2 °F 30.15 in West 6.1 mph 18 mph 44.9% 0.00 in 265 W/m2
14:14 43.3 °F 23.4 °F 30.15 in WNW 5.5 mph 18 mph 45% 0.00 in 95 W/m2
14:19 43.4 °F 23.4 °F 30.15 in WNW 7.5 mph 18 mph 44.8% 0.00 in 121 W/m2
14:24 43.4 °F 23.3 °F 30.16 in WNW 9.1 mph 23 mph 44.7% 0.00 in 74 W/m2
14:29 43.1 °F 22.6 °F 30.16 in NW 14.7 mph 27 mph 43.8% 0.00 in 81 W/m2
14:34 42.8 °F 22.5 °F 30.16 in WNW 10.3 mph 27 mph 44.2% 0.00 in 42 W/m2
14:39 42.6 °F 23 °F 30.16 in NW 11.2 mph 23 mph 45.4% 0.00 in 26 W/m2
14:44 42.6 °F 22.6 °F 30.16 in WNW 13.6 mph 28 mph 44.9% 0.00 in 25 W/m2
14:49 42.4 °F 22.6 °F 30.17 in WNW 11.5 mph 28 mph 45% 0.00 in 25 W/m2
14:54 42.3 °F 22.5 °F 30.17 in WNW 15.3 mph 30 mph 45% 0.00 in 23 W/m2
14:59 42.2 °F 22.5 °F 30.17 in WNW 14.3 mph 30 mph 45.3% 0.00 in 23 W/m2
15:04 42.1 °F 22.8 °F 30.18 in WNW 15.2 mph 30 mph 45.9% 0.00 in 21 W/m2
15:09 42 °F 22.8 °F 30.18 in WNW 10.1 mph 25 mph 46.3% 0.00 in 21 W/m2
15:14 41.9 °F 23.1 °F 30.18 in WNW 12.5 mph 25 mph 47% 0.00 in 19 W/m2
15:19 41.8 °F 22.8 °F 30.18 in WNW 16.1 mph 31 mph 46.6% 0.00 in 19 W/m2
15:24 41.7 °F 22.7 °F 30.18 in WNW 11.5 mph 31 mph 46.7% 0.00 in 19 W/m2
15:29 41.6 °F 22.8 °F 30.19 in WNW 14.3 mph 31 mph 47% 0.00 in 18 W/m2
15:34 41.5 °F 22.7 °F 30.19 in WNW 15.1 mph 31 mph 47% 0.00 in 16 W/m2
15:39 41.3 °F 22.9 °F 30.19 in WNW 16.3 mph 31 mph 47.6% 0.00 in 16 W/m2
15:44 41.2 °F 23 °F 30.20 in WNW 10.3 mph 31 mph 48% 0.00 in 14 W/m2
15:49 41.1 °F 23 °F 30.20 in WNW 11.7 mph 31 mph 48.1% 0.00 in 12 W/m2
15:54 41 °F 23.2 °F 30.21 in WNW 9.5 mph 31 mph 48.7% 0.00 in 12 W/m2
15:59 40.9 °F 23.1 °F 30.21 in WNW 10.6 mph 31 mph 48.8% 0.00 in 11 W/m2
16:04 40.7 °F 23 °F 30.22 in WNW 11.2 mph 16 mph 49% 0.00 in 7 W/m2
16:09 40.7 °F 23 °F 30.22 in WNW 10.2 mph 31 mph 49% 0.00 in 7 W/m2
16:14 40.5 °F 22.9 °F 30.23 in WNW 13.3 mph 31 mph 49% 0.00 in 5 W/m2
16:19 40.5 °F 23.2 °F 30.23 in WNW 7.6 mph 31 mph 49.7% 0.00 in 0 W/m2
16:24 40.3 °F 23.2 °F 30.23 in West 6.3 mph 31 mph 50% 0.00 in 0 W/m2
16:29 40.2 °F 23.1 °F 30.25 in WNW 8.8 mph 31 mph 50% 0.00 in 0 W/m2
16:34 40.1 °F 23.2 °F 30.25 in WNW 7.3 mph 31 mph 50.5% 0.00 in 0 W/m2
16:39 40 °F 23.3 °F 30.26 in West 6 mph 20 mph 50.8% 0.00 in 0 W/m2
16:44 40 °F 23.3 °F 30.26 in West 6.5 mph 20 mph 51% 0.00 in 0 W/m2
16:49 39.8 °F 23.5 °F 30.26 in WNW 5.3 mph 20 mph 51.6% 0.00 in 0 W/m2
16:54 39.7 °F 23.5 °F 30.26 in WNW 4.3 mph 20 mph 52% 0.00 in 0 W/m2
16:59 39.6 °F 23.7 °F 30.27 in WNW 9.2 mph 21 mph 52.6% 0.00 in 0 W/m2
17:04 39.5 °F 23.8 °F 30.27 in WNW 3.6 mph 21 mph 53% 0.00 in 0 W/m2
17:09 39.4 °F 23.8 °F 30.28 in WNW 2.9 mph 13 mph 53.1% 0.00 in 0 W/m2
17:14 39.3 °F 24 °F 30.28 in WNW 2.4 mph 13 mph 54% 0.00 in 0 W/m2
17:19 39.1 °F 23.9 °F 30.28 in WNW 0.8 mph 13 mph 54% 0.00 in 0 W/m2
17:24 39 °F 24 °F 30.28 in WNW 0.1 mph 13 mph 54.6% 0.00 in 0 W/m2
17:29 38.9 °F 24.1 °F 30.28 in WNW 0.3 mph 13 mph 55% 0.00 in 0 W/m2
17:34 38.7 °F 24 °F 30.28 in Calm   13 mph 55% 0.00 in 0 W/m2
17:39 38.6 °F 23.8 °F 30.28 in West 3.4 mph 10 mph 55% 0.00 in 0 W/m2
17:44 38.6 °F 23.8 °F 30.29 in West 4.3 mph 18 mph 55% 0.00 in 0 W/m2
17:49 38.6 °F 23.9 °F 30.29 in WNW 1.4 mph 18 mph 55.2% 0.00 in 0 W/m2
17:54 38.6 °F 23.8 °F 30.30 in Calm   18 mph 55% 0.00 in 0 W/m2
17:59 38.6 °F 23.9 °F 30.30 in WNW 4.9 mph 18 mph 55.1% 0.00 in 0 W/m2
18:04 38.5 °F 24.2 °F 30.30 in WNW 0.4 mph 18 mph 55.9% 0.00 in 0 W/m2
18:09 38.5 °F 24.1 °F 30.31 in WNW 1.9 mph 10 mph 56% 0.00 in 0 W/m2
18:14 38.4 °F 24.1 °F 30.30 in WNW 1.9 mph 10 mph 56% 0.00 in 0 W/m2
18:19 38.3 °F 24 °F 30.31 in WNW 3.9 mph 10 mph 56% 0.00 in 0 W/m2
18:24 38.2 °F 24 °F 30.31 in West 3.7 mph 10 mph 56.2% 0.00 in 0 W/m2
18:29 38.2 °F 24.1 °F 30.31 in West 0.9 mph 10 mph 56.5% 0.00 in 0 W/m2
18:34 38.1 °F 24 °F 30.31 in West 4 mph 13 mph 56.3% 0.00 in 0 W/m2
18:39 38.2 °F 24.2 °F 30.31 in WNW 2.8 mph 13 mph 56.7% 0.00 in 0 W/m2
18:44 38.1 °F 24.2 °F 30.31 in West 0.1 mph 13 mph 57% 0.00 in 0 W/m2
18:49 38 °F 24.1 °F 30.31 in WNW 3 mph 13 mph 57% 0.00 in 0 W/m2
18:54 37.9 °F 24.2 °F 30.32 in West 1.2 mph 13 mph 57.4% 0.00 in 0 W/m2
18:59 37.8 °F 24 °F 30.32 in West 0.5 mph 13 mph 57.2% 0.00 in 0 W/m2
19:04 37.7 °F 24.3 °F 30.32 in West 1.2 mph 13 mph 58% 0.00 in 0 W/m2
19:09 37.6 °F 24.2 °F 30.32 in WNW 2.6 mph 10 mph 58% 0.00 in 0 W/m2
19:14 37.6 °F 24.3 °F 30.32 in WNW 0.4 mph 10 mph 58.2% 0.00 in 0 W/m2
19:19 37.5 °F 24.2 °F 30.33 in West 0.9 mph 10 mph 58.3% 0.00 in 0 W/m2
19:24 37.5 °F 24.1 °F 30.33 in WNW 1.3 mph 10 mph 58% 0.00 in 0 W/m2
19:29 37.5 °F 24.4 °F 30.33 in NW 1.2 mph 10 mph 58.8% 0.00 in 0 W/m2
19:34 37.5 °F 24.2 °F 30.34 in Calm   10 mph 58.3% 0.00 in 0 W/m2
19:39 37.4 °F 24.2 °F 30.34 in WNW 0.1 mph 1 mph 58.6% 0.00 in 0 W/m2
19:44 37.3 °F 24.3 °F 30.34 in West 0.1 mph 5 mph 59% 0.00 in 0 W/m2
19:49 37.2 °F 24.2 °F 30.34 in West 1.8 mph 9 mph 59% 0.00 in 0 W/m2
19:54 37.1 °F 24.1 °F 30.34 in Calm   9 mph 59% 0.00 in 0 W/m2
19:59 37 °F 24.3 °F 30.34 in Calm   9 mph 59.7% 0.00 in 0 W/m2
20:04 36.8 °F 23.8 °F 30.35 in Calm     59% 0.00 in 0 W/m2
20:09 36.7 °F 23.7 °F 30.35 in Calm     59% 0.00 in 0 W/m2
20:14 36.5 °F 23.9 °F 30.35 in Calm     59.9% 0.00 in 0 W/m2
20:19 36.4 °F 23.9 °F 30.35 in Calm     60.3% 0.00 in 0 W/m2
20:24 36.2 °F 24.1 °F 30.35 in Calm     61% 0.00 in 0 W/m2
20:29 36.1 °F 23.9 °F 30.35 in Calm   1 mph 61% 0.00 in 0 W/m2
20:34 36 °F 24.1 °F 30.35 in West 0.3 mph 5 mph 61.7% 0.00 in 0 W/m2
20:39 35.9 °F 24.1 °F 30.35 in Calm   5 mph 62% 0.00 in 0 W/m2
20:44 35.7 °F 24 °F 30.34 in Calm   5 mph 62% 0.00 in 0 W/m2
20:49 35.6 °F 24 °F 30.35 in WSW 0.6 mph 6 mph 62.4% 0.00 in 0 W/m2
20:54 35.6 °F 24 °F 30.35 in Calm   6 mph 62.2% 0.00 in 0 W/m2
21:00 35.5 °F 23.8 °F 30.35 in Calm   6 mph 62% 0.00 in 0 W/m2
21:30 35.5 °F 24.2 °F 30.35 in West 1 mph 9 mph 63% 0.00 in 0 W/m2
22:00 35 °F 24.1 °F 30.34 in Calm   1 mph 64% 0.00 in 0 W/m2
22:30 33.7 °F 23.6 °F 30.36 in Calm   1 mph 66% 0.00 in 0 W/m2
23:04 33.2 °F 24.1 °F 30.37 in Calm   1 mph 68.9% 0.00 in 0 W/m2
23:09 33.1 °F 24 °F 30.38 in Calm     69% 0.00 in 0 W/m2
23:14 33 °F 23.9 °F 30.37 in Calm     69% 0.00 in 0 W/m2
23:19 32.9 °F 23.9 °F 30.37 in Calm     69% 0.00 in 0 W/m2
23:24 32.9 °F 23.9 °F 30.38 in Calm     69% 0.00 in 0 W/m2
23:29 33 °F 23.9 °F 30.38 in Calm     69% 0.00 in 0 W/m2
23:34 33 °F 24 °F 30.38 in Calm     69% 0.00 in 0 W/m2
23:39 33 °F 24 °F 30.38 in Calm     69.1% 0.00 in 0 W/m2
23:44 33 °F 24 °F 30.38 in Calm     69% 0.00 in 0 W/m2
23:49 33.1 °F 24 °F 30.38 in Calm     69% 0.00 in 0 W/m2
23:54 33.1 °F 24.4 °F 30.38 in Calm     70% 0.00 in 0 W/m2
23:59 33.1 °F 24.5 °F 30.38 in Calm     70.3% 0.00 in 0 W/m2
Hartford County Weather
Compliments of Weather Underground - 4 mb